createdAt,value
2024-03-05T00:01:13.689Z,85.66
2024-03-05T00:04:00.574Z,85.94
2024-03-05T00:06:47.786Z,86.29
2024-03-05T00:09:34.655Z,85.06
2024-03-05T00:12:21.728Z,85.84
2024-03-05T00:15:08.610Z,84.95
2024-03-05T00:17:55.573Z,85.37
2024-03-05T00:20:42.513Z,84.86
2024-03-05T00:23:29.341Z,85.83
2024-03-05T00:26:16.215Z,85.01
2024-03-05T00:29:03.252Z,85.09
2024-03-05T00:31:50.374Z,85.25
2024-03-05T00:34:37.394Z,86.02
2024-03-05T00:37:24.339Z,86.04
2024-03-05T00:40:11.369Z,85.80
2024-03-05T00:42:58.904Z,85.83
2024-03-05T00:45:45.776Z,85.96
2024-03-05T00:48:32.701Z,85.04
2024-03-05T00:51:19.541Z,85.03
2024-03-05T00:54:06.456Z,85.34
2024-03-05T00:56:53.395Z,85.30
2024-03-05T00:59:40.294Z,84.79
2024-03-05T01:02:27.371Z,85.36
2024-03-05T01:05:15.277Z,84.50
2024-03-05T01:08:02.396Z,85.81
2024-03-05T01:10:49.474Z,85.24
2024-03-05T01:13:36.431Z,85.11
2024-03-05T01:16:23.539Z,85.24
2024-03-05T01:19:10.391Z,84.96
2024-03-05T01:21:57.278Z,85.55
2024-03-05T01:24:44.116Z,84.52
2024-03-05T01:27:30.999Z,85.95
2024-03-05T01:30:17.986Z,85.03
2024-03-05T01:33:04.949Z,85.37
2024-03-05T01:35:52.263Z,85.61
2024-03-05T01:38:39.260Z,85.16
2024-03-05T01:41:26.083Z,85.75
2024-03-05T01:44:12.931Z,84.60
2024-03-05T01:47:01.135Z,85.10
2024-03-05T01:49:50.067Z,85.33
2024-03-05T01:52:36.996Z,84.53
2024-03-05T01:55:30.956Z,85.81
2024-03-05T01:58:19.067Z,85.62
2024-03-05T02:01:07.255Z,84.96
2024-03-05T02:03:58.478Z,84.45
2024-03-05T02:06:45.594Z,84.54
2024-03-05T02:09:32.516Z,85.09
2024-03-05T02:12:19.757Z,85.41
2024-03-05T02:15:06.716Z,85.09
2024-03-05T02:17:53.642Z,84.40
2024-03-05T02:21:00.570Z,85.42
2024-03-05T02:23:47.419Z,85.05
2024-03-05T02:26:34.930Z,85.32
2024-03-05T02:29:23.053Z,84.47
2024-03-05T02:32:10.551Z,85.31
2024-03-05T02:34:57.481Z,85.00
2024-03-05T02:37:44.421Z,84.29
2024-03-05T02:40:35.036Z,85.13
2024-03-05T02:43:21.988Z,84.64
2024-03-05T02:46:08.998Z,84.31
2024-03-05T02:48:55.856Z,85.01
2024-03-05T02:51:42.944Z,85.75
2024-03-05T02:54:29.816Z,85.08
2024-03-05T02:57:16.623Z,84.93
2024-03-05T03:00:03.577Z,84.95
2024-03-05T03:02:50.630Z,84.13
2024-03-05T03:05:38.965Z,85.04
2024-03-05T03:08:25.965Z,84.44
2024-03-05T03:11:12.904Z,85.29
2024-03-05T03:13:59.951Z,84.95
2024-03-05T03:16:46.877Z,84.43
2024-03-05T03:19:33.861Z,84.35
2024-03-05T03:22:20.800Z,84.58
2024-03-05T03:25:07.671Z,85.37
2024-03-05T03:27:54.508Z,85.44
2024-03-05T03:30:41.448Z,84.14
2024-03-05T03:33:28.315Z,84.68
2024-03-05T03:36:15.229Z,84.95
2024-03-05T03:39:02.133Z,85.03
2024-03-05T03:41:50.085Z,84.29
2024-03-05T03:44:37.125Z,85.01
2024-03-05T03:47:23.976Z,85.43
2024-03-05T03:50:10.903Z,85.02
2024-03-05T03:53:01.103Z,84.96
2024-03-05T03:55:48.052Z,85.24
2024-03-05T03:58:34.986Z,85.28
2024-03-05T04:01:22.419Z,85.56
2024-03-05T04:04:09.816Z,85.11
2024-03-05T04:06:56.668Z,85.23
2024-03-05T04:09:43.568Z,84.57
2024-03-05T04:12:30.431Z,84.96
2024-03-05T04:15:17.268Z,84.78
2024-03-05T04:18:04.250Z,84.61
2024-03-05T04:20:51.171Z,84.17
2024-03-05T04:23:38.098Z,84.68
2024-03-05T04:26:25.170Z,84.71
2024-03-05T04:29:12.089Z,85.24
2024-03-05T04:31:58.980Z,84.52
2024-03-05T04:34:46.014Z,84.39
2024-03-05T04:37:33.050Z,84.29
2024-03-05T04:40:20.112Z,84.58
2024-03-05T04:43:07.008Z,84.11
2024-03-05T04:45:55.037Z,83.86
2024-03-05T04:48:42.015Z,84.74
2024-03-05T04:51:32.011Z,84.23
2024-03-05T04:54:18.915Z,85.40
2024-03-05T04:57:05.749Z,84.04
2024-03-05T04:59:53.828Z,84.78
2024-03-05T05:02:40.908Z,84.04
2024-03-05T05:05:28.071Z,84.10
2024-03-05T05:08:16.094Z,84.68
2024-03-05T05:11:03.076Z,84.05
2024-03-05T05:13:49.983Z,85.02
2024-03-05T05:16:36.907Z,85.05
2024-03-05T05:19:23.770Z,84.05
2024-03-05T05:22:10.778Z,84.48
2024-03-05T05:24:57.793Z,84.56
2024-03-05T05:27:44.697Z,84.43
2024-03-05T05:30:31.708Z,84.04
2024-03-05T05:33:18.837Z,84.88
2024-03-05T05:36:05.806Z,84.13
2024-03-05T05:38:52.639Z,84.21
2024-03-05T05:41:39.592Z,84.57
2024-03-05T05:44:26.446Z,84.39
2024-03-05T05:47:13.419Z,84.84
2024-03-05T05:50:00.595Z,85.18
2024-03-05T05:52:47.601Z,84.94
2024-03-05T05:55:34.545Z,84.64
2024-03-05T05:58:21.550Z,84.12
2024-03-05T06:01:08.675Z,84.77
2024-03-05T06:03:58.036Z,84.24
2024-03-05T06:06:44.859Z,84.12
2024-03-05T06:09:31.722Z,83.93
2024-03-05T06:12:20.725Z,84.61
2024-03-05T06:15:07.713Z,84.49
2024-03-05T06:17:54.598Z,84.25
2024-03-05T06:20:41.519Z,84.76
2024-03-05T06:23:28.501Z,84.48
2024-03-05T06:26:15.352Z,84.81
2024-03-05T06:29:02.286Z,84.38
2024-03-05T06:31:29.337Z,84.34
2024-03-05T06:34:16.272Z,85.01
2024-03-05T06:37:03.160Z,84.73
2024-03-05T06:39:52.763Z,84.10
2024-03-05T06:42:39.711Z,84.70
2024-03-05T06:45:27.859Z,84.97
2024-03-05T06:48:18.729Z,83.73
2024-03-05T06:51:07.058Z,84.30
2024-03-05T06:53:52.539Z,84.29
2024-03-05T06:56:37.996Z,84.32
2024-03-05T06:59:24.886Z,84.93
2024-03-05T07:02:11.846Z,84.66
2024-03-05T07:04:59.585Z,84.82
2024-03-05T07:07:46.549Z,83.79
2024-03-05T07:10:36.456Z,84.69
2024-03-05T07:13:23.678Z,84.51
2024-03-05T07:16:10.537Z,84.43
2024-03-05T07:18:57.700Z,84.80
2024-03-05T07:21:45.310Z,84.94
2024-03-05T07:24:32.288Z,83.74
2024-03-05T07:27:19.207Z,85.07
2024-03-05T07:30:06.123Z,84.21
2024-03-05T07:32:52.965Z,83.93
2024-03-05T07:35:39.894Z,84.28
2024-03-05T07:38:27.296Z,85.12
2024-03-05T07:41:22.502Z,84.02
2024-03-05T07:44:16.405Z,83.98
2024-03-05T07:47:03.313Z,83.92
2024-03-05T07:49:50.222Z,84.90
2024-03-05T07:52:37.212Z,84.57
2024-03-05T07:55:31.880Z,84.77
2024-03-05T07:58:23.199Z,83.62
2024-03-05T08:01:10.102Z,84.22
2024-03-05T08:03:56.964Z,83.74
2024-03-05T08:06:44.476Z,83.66
2024-03-05T08:09:31.428Z,84.56
2024-03-05T08:12:21.723Z,84.17
2024-03-05T08:15:09.405Z,84.44
2024-03-05T08:17:58.264Z,84.51
2024-03-05T08:20:47.189Z,83.44
2024-03-05T08:23:34.127Z,83.02
2024-03-05T08:26:21.060Z,84.30
2024-03-05T08:29:08.118Z,83.99
2024-03-05T08:31:54.981Z,83.39
2024-03-05T08:34:41.957Z,84.33
2024-03-05T08:37:28.854Z,83.36
2024-03-05T08:40:15.769Z,82.93
2024-03-05T08:43:04.994Z,84.17
2024-03-05T08:45:52.936Z,83.92
2024-03-05T08:48:39.783Z,83.57
2024-03-05T08:51:26.627Z,82.98
2024-03-05T08:54:16.467Z,82.56
2024-03-05T08:57:04.687Z,82.92
2024-03-05T08:59:51.650Z,83.22
2024-03-05T09:02:38.842Z,83.40
2024-03-05T09:05:26.208Z,82.37
2024-03-05T09:08:13.257Z,83.71
2024-03-05T09:11:00.172Z,83.36
2024-03-05T09:13:47.469Z,82.36
2024-03-05T09:16:34.721Z,83.22
2024-03-05T09:19:21.817Z,82.82
2024-03-05T09:22:09.456Z,83.05
2024-03-05T09:24:56.436Z,83.49
2024-03-05T09:27:43.421Z,82.02
2024-03-05T09:30:31.383Z,83.43
2024-03-05T09:33:18.303Z,82.99
2024-03-05T09:35:45.204Z,82.55
2024-03-05T09:38:32.105Z,81.95
2024-03-05T09:41:19.111Z,82.42
2024-03-05T09:43:46.984Z,82.44
2024-03-05T09:46:34.958Z,83.53
2024-03-05T09:49:23.410Z,82.53
2024-03-05T09:52:12.138Z,82.79
2024-03-05T09:54:58.959Z,82.26
2024-03-05T09:57:46.830Z,82.99
2024-03-05T10:00:38.393Z,83.18
2024-03-05T10:03:27.193Z,83.14
2024-03-05T10:06:14.226Z,83.01
2024-03-05T10:09:01.245Z,82.03
2024-03-05T10:11:48.893Z,82.18
2024-03-05T10:14:35.806Z,82.15
2024-03-05T10:17:22.664Z,82.54
2024-03-05T10:20:09.544Z,82.50
2024-03-05T10:22:56.599Z,82.09
2024-03-05T10:25:43.607Z,82.59
2024-03-05T10:28:30.583Z,82.36
2024-03-05T10:31:20.262Z,82.97
2024-03-05T10:34:07.201Z,83.36
2024-03-05T10:37:04.025Z,83.33
2024-03-05T10:39:53.849Z,83.19
2024-03-05T10:42:43.153Z,82.98
2024-03-05T10:45:30.541Z,82.94
2024-03-05T10:48:20.445Z,81.78
2024-03-05T10:51:10.158Z,82.45
2024-03-05T10:53:57.264Z,82.30
2024-03-05T10:56:45.379Z,82.34
2024-03-05T10:59:12.628Z,81.88
2024-03-05T11:02:00.572Z,82.57
2024-03-05T11:04:51.429Z,81.85
2024-03-05T11:07:38.428Z,82.08
2024-03-05T11:10:26.557Z,82.63
2024-03-05T11:13:13.800Z,82.37
2024-03-05T11:16:01.063Z,82.01
2024-03-05T11:18:52.438Z,82.58
2024-03-05T11:21:39.291Z,82.76
2024-03-05T11:24:26.792Z,82.23
2024-03-05T11:27:22.758Z,81.47
2024-03-05T11:30:09.637Z,81.53
2024-03-05T11:32:57.578Z,81.38
2024-03-05T11:35:47.019Z,81.56
2024-03-05T11:38:34.567Z,82.36
2024-03-05T11:41:21.437Z,81.88
2024-03-05T11:44:08.406Z,82.47
2024-03-05T11:47:13.591Z,82.04
2024-03-05T11:50:00.661Z,81.54
2024-03-05T11:52:48.826Z,82.03
2024-03-05T11:55:45.784Z,82.22
2024-03-05T11:58:32.711Z,81.85
2024-03-05T12:01:23.828Z,81.49
2024-03-05T12:04:24.756Z,81.86
2024-03-05T12:07:18.964Z,81.11
2024-03-05T12:10:05.973Z,81.69
2024-03-05T12:12:52.867Z,81.62
2024-03-05T12:15:40.632Z,80.84
2024-03-05T12:18:31.284Z,81.54
2024-03-05T14:45:18.035Z,80.73
2024-03-05T14:48:05.778Z,80.85
2024-03-05T14:50:52.688Z,80.71
2024-03-05T14:53:40.933Z,80.65
2024-03-05T14:56:31.227Z,80.16
2024-03-05T14:59:18.550Z,80.42
2024-03-05T15:02:05.686Z,80.68
2024-03-05T15:04:52.865Z,79.23
2024-03-05T15:07:39.800Z,79.20
2024-03-05T15:10:28.373Z,80.06
2024-03-05T15:13:15.679Z,79.00
2024-03-05T15:16:02.582Z,78.84
2024-03-05T15:18:49.410Z,78.92
2024-03-05T15:21:36.273Z,79.36
2024-03-05T15:24:23.233Z,78.62
2024-03-05T15:27:10.079Z,79.51
2024-03-05T15:29:57.054Z,78.35
2024-03-05T15:32:43.982Z,79.66
2024-03-05T15:35:31.015Z,79.29
2024-03-05T15:38:18.353Z,78.59
2024-03-05T15:41:05.229Z,78.77
2024-03-05T15:43:55.273Z,79.03
2024-03-05T15:46:42.209Z,78.82
2024-03-05T15:49:29.068Z,79.13
2024-03-05T15:52:16.133Z,78.89
2024-03-05T15:55:02.985Z,77.97
2024-03-05T15:57:49.843Z,79.08
2024-03-05T16:00:37.018Z,78.15
2024-03-05T16:03:26.336Z,78.48
2024-03-05T16:06:00.753Z,78.29
2024-03-05T16:08:53.677Z,77.80
2024-03-05T16:11:40.823Z,78.27
2024-03-05T16:14:28.129Z,79.30
2024-03-05T16:17:15.100Z,78.83
2024-03-05T16:20:03.212Z,78.25
2024-03-05T16:22:50.187Z,77.98
2024-03-05T16:25:37.102Z,78.03
2024-03-05T16:28:24.302Z,79.27
2024-03-05T16:31:13.156Z,78.99
2024-03-05T16:34:01.473Z,78.84
2024-03-05T16:36:48.558Z,78.63
2024-03-05T16:39:35.515Z,79.21
2024-03-05T16:42:22.333Z,77.92
2024-03-05T16:45:09.159Z,78.13
2024-03-05T16:47:56.117Z,77.87
2024-03-05T16:50:44.280Z,77.64
2024-03-05T16:53:31.427Z,77.98
2024-03-05T16:56:18.333Z,78.42
2024-03-05T16:59:05.567Z,79.27
2024-03-05T17:01:52.538Z,78.16
2024-03-05T17:04:39.462Z,78.90
2024-03-05T17:07:26.418Z,77.93
2024-03-05T17:10:13.350Z,77.76
2024-03-05T17:13:00.809Z,78.51
2024-03-05T17:16:00.094Z,78.21
2024-03-05T17:18:47.512Z,77.73
2024-03-05T17:21:34.428Z,79.15
2024-03-05T17:24:21.239Z,79.43
2024-03-05T17:27:08.205Z,78.97
2024-03-05T17:29:55.038Z,79.41
2024-03-05T17:32:41.884Z,78.78
2024-03-05T17:35:29.032Z,78.71
2024-03-05T17:38:15.944Z,78.63
2024-03-05T17:41:02.981Z,79.29
2024-03-05T17:43:50.450Z,78.88
2024-03-05T17:46:39.302Z,78.06
2024-03-05T17:49:26.492Z,79.52
2024-03-05T17:52:13.441Z,78.00
2024-03-05T17:55:00.455Z,78.83
2024-03-05T17:57:47.388Z,78.99
2024-03-05T18:00:27.497Z,78.79
2024-03-05T18:03:18.709Z,79.54
2024-03-05T18:06:05.626Z,79.65
2024-03-05T18:08:52.467Z,78.21
2024-03-05T18:11:39.526Z,79.01
2024-03-05T18:14:26.588Z,79.67
2024-03-05T18:17:13.545Z,78.60
2024-03-05T18:20:00.548Z,79.26
2024-03-05T18:22:47.502Z,78.44
2024-03-05T18:25:38.303Z,79.10
2024-03-05T18:28:25.749Z,78.49
2024-03-05T18:31:12.658Z,78.62
2024-03-05T18:33:59.550Z,79.07
2024-03-05T18:36:46.562Z,78.32
2024-03-05T18:39:33.412Z,78.48
2024-03-05T18:42:21.035Z,79.47
2024-03-05T18:45:07.982Z,79.55
2024-03-05T18:48:02.884Z,78.46
2024-03-05T18:50:55.799Z,78.27
2024-03-05T18:53:46.646Z,79.61
2024-03-05T18:56:36.777Z,78.72
2024-03-05T18:59:23.661Z,78.29
2024-03-05T19:02:10.690Z,79.08
2024-03-05T19:04:57.646Z,78.26
2024-03-05T19:07:44.604Z,78.37
2024-03-05T19:10:32.086Z,78.41
2024-03-05T19:13:19.139Z,79.08
2024-03-05T19:16:06.027Z,79.67
2024-03-05T19:18:52.979Z,78.73
2024-03-05T19:21:39.842Z,78.29
2024-03-05T19:24:26.754Z,79.37
2024-03-05T19:27:14.082Z,79.13
2024-03-05T19:30:01.049Z,78.74
2024-03-05T19:32:48.356Z,79.78
2024-03-05T19:35:37.396Z,78.43
2024-03-05T19:38:24.724Z,79.27
2024-03-05T19:41:11.751Z,78.46
2024-03-05T19:44:02.232Z,79.85
2024-03-05T19:46:49.162Z,79.53
2024-03-05T19:49:38.758Z,79.31
2024-03-05T19:52:25.646Z,78.60
2024-03-05T19:55:12.577Z,78.84
2024-03-05T19:57:59.461Z,79.54
2024-03-05T20:00:26.743Z,79.70
2024-03-05T20:03:14.308Z,79.20
2024-03-05T20:06:01.299Z,78.54
2024-03-05T20:08:48.154Z,79.80
2024-03-05T20:11:35.177Z,78.89
2024-03-05T20:14:22.276Z,79.83
2024-03-05T20:17:05.819Z,79.46
2024-03-05T20:19:52.922Z,79.65
2024-03-05T20:22:40.076Z,79.69
2024-03-05T20:25:27.271Z,79.45
2024-03-05T20:28:14.371Z,79.93
2024-03-05T20:31:01.240Z,78.93
2024-03-05T20:33:48.123Z,79.42
2024-03-05T20:36:35.086Z,78.69
2024-03-05T20:39:22.034Z,79.22
2024-03-05T20:42:08.964Z,79.17
2024-03-05T20:44:55.885Z,79.42
2024-03-05T20:47:43.066Z,79.43
2024-03-05T20:50:31.171Z,79.83
2024-03-05T20:53:18.072Z,79.48
2024-03-05T20:56:05.173Z,79.04
2024-03-05T20:58:52.036Z,80.03
2024-03-05T21:01:38.993Z,79.52
2024-03-05T21:04:25.922Z,79.09
2024-03-05T21:07:12.757Z,80.21
2024-03-05T21:09:59.624Z,79.50
2024-03-05T21:12:46.480Z,79.50
2024-03-05T21:15:33.546Z,79.59
2024-03-05T21:18:20.418Z,79.89
2024-03-05T21:21:07.470Z,79.96
2024-03-05T21:23:54.392Z,78.96
2024-03-05T21:26:54.460Z,80.13
2024-03-05T21:29:48.229Z,79.63
2024-03-05T21:32:35.232Z,79.31
2024-03-05T21:35:22.898Z,79.08
2024-03-05T21:38:09.896Z,79.36
2024-03-05T21:40:56.843Z,79.41
2024-03-05T21:43:43.764Z,79.60
2024-03-05T21:46:10.974Z,78.94
2024-03-05T21:48:37.881Z,78.90
2024-03-05T21:51:24.848Z,80.22
2024-03-05T21:54:11.762Z,80.43
2024-03-05T21:56:58.654Z,79.79
2024-03-05T21:59:45.539Z,80.44
2024-03-05T22:02:32.501Z,80.15
2024-03-05T22:05:19.389Z,80.27
2024-03-05T22:08:07.704Z,80.47
2024-03-05T22:10:54.544Z,79.60
2024-03-05T22:13:41.456Z,80.56
2024-03-05T22:16:28.350Z,80.34
2024-03-05T22:19:15.234Z,80.20
2024-03-05T22:22:02.060Z,80.22
2024-03-05T22:24:48.929Z,79.75
2024-03-05T22:27:36.134Z,80.07
2024-03-05T22:30:24.091Z,79.99
2024-03-05T22:33:11.072Z,79.57
2024-03-05T22:35:59.168Z,79.46
2024-03-05T22:38:46.078Z,79.48
2024-03-05T22:41:33.483Z,79.38
2024-03-05T22:44:20.355Z,79.65
2024-03-05T22:47:07.324Z,79.07
2024-03-05T22:49:54.394Z,79.39
2024-03-05T22:52:41.313Z,79.33
2024-03-05T22:55:29.786Z,79.11
2024-03-05T22:58:16.732Z,80.41
2024-03-05T23:01:03.593Z,80.05
2024-03-05T23:03:50.446Z,79.28
2024-03-05T23:06:37.447Z,79.62
2024-03-05T23:09:24.333Z,79.81
2024-03-05T23:12:11.294Z,79.54
2024-03-05T23:14:58.212Z,79.65
2024-03-05T23:17:45.195Z,79.60
2024-03-05T23:20:32.728Z,79.39
2024-03-05T23:23:19.636Z,79.81
2024-03-05T23:26:06.594Z,80.55
2024-03-05T23:28:53.461Z,80.47
2024-03-05T23:31:40.345Z,79.91
2024-03-05T23:34:27.220Z,80.43
2024-03-05T23:37:14.071Z,80.13
2024-03-05T23:40:00.918Z,80.49
2024-03-05T23:42:47.864Z,79.88
2024-03-05T23:45:34.741Z,79.79
2024-03-05T23:48:21.670Z,80.48
2024-03-05T23:51:08.605Z,80.39
2024-03-05T23:53:55.439Z,79.51
2024-03-05T23:56:42.336Z,80.44
2024-03-05T23:59:29.181Z,80.69
